createdAt,value
2022-10-17T00:00:51.278Z,54.49
2022-10-17T00:03:18.890Z,54.74
2022-10-17T00:05:48.565Z,54.72
2022-10-17T00:08:19.196Z,54.38
2022-10-17T00:10:56.093Z,54.31
2022-10-17T00:13:23.654Z,54.31
2022-10-17T00:15:52.450Z,54.36
2022-10-17T00:18:20.319Z,54.61
2022-10-17T00:20:47.604Z,54.59
2022-10-17T00:23:14.856Z,54.62
2022-10-17T00:25:42.244Z,54.31
2022-10-17T00:28:10.582Z,54.23
2022-10-17T00:30:37.902Z,53.91
2022-10-17T00:33:07.213Z,53.92
2022-10-17T00:35:34.443Z,53.95
2022-10-17T00:38:01.711Z,53.68
2022-10-17T00:40:29.072Z,53.33
2022-10-17T00:42:56.319Z,53.78
2022-10-17T00:45:27.861Z,53.89
2022-10-17T00:48:00.971Z,53.46
2022-10-17T00:50:30.094Z,53.95
2022-10-17T00:53:02.788Z,53.73
2022-10-17T00:55:35.625Z,53.71
2022-10-17T00:58:05.610Z,53.91
2022-10-17T01:00:32.913Z,53.38
2022-10-17T01:03:00.581Z,53.45
2022-10-17T01:05:29.951Z,53.68
2022-10-17T01:07:57.685Z,53.79
2022-10-17T01:10:34.214Z,53.41
2022-10-17T01:13:14.116Z,53.99
2022-10-17T01:15:59.741Z,53.97
2022-10-17T01:18:47.290Z,53.83
2022-10-17T01:21:47.232Z,53.59
2022-10-17T01:24:47.186Z,53.38
2022-10-17T01:28:01.185Z,53.57
2022-10-17T01:31:15.785Z,53.54
2022-10-17T01:34:01.294Z,53.94
2022-10-17T01:36:44.387Z,53.33
2022-10-17T01:39:20.824Z,53.77
2022-10-17T01:41:58.290Z,53.79
2022-10-17T01:44:36.798Z,53.78
2022-10-17T01:47:10.096Z,53.66
2022-10-17T01:49:42.044Z,54.04
2022-10-17T01:52:15.330Z,54.16
2022-10-17T01:54:48.930Z,54.24
2022-10-17T01:57:24.600Z,54.54
2022-10-17T01:59:56.088Z,54.70
2022-10-17T02:02:26.778Z,54.73
2022-10-17T02:04:57.419Z,55.62
2022-10-17T02:07:25.044Z,55.46
2022-10-17T02:09:52.617Z,55.53
2022-10-17T02:12:45.765Z,55.88
2022-10-17T02:16:08.370Z,56.28
2022-10-17T02:19:01.480Z,56.71
2022-10-17T02:21:39.342Z,56.61
2022-10-17T02:24:17.836Z,57.01
2022-10-17T02:26:54.089Z,56.91
2022-10-17T02:29:28.918Z,56.67
2022-10-17T02:32:05.642Z,56.88
2022-10-17T02:34:41.483Z,56.58
2022-10-17T02:37:12.839Z,56.81
2022-10-17T02:39:42.993Z,56.72
2022-10-17T02:42:14.133Z,56.52
2022-10-17T02:44:45.880Z,56.81
2022-10-17T02:47:22.092Z,56.48
2022-10-17T02:49:55.220Z,56.45
2022-10-17T02:52:34.041Z,56.46
2022-10-17T02:55:12.106Z,56.63
2022-10-17T02:57:44.701Z,56.47
2022-10-17T03:00:15.604Z,56.42
2022-10-17T03:02:46.764Z,56.83
2022-10-17T03:05:22.051Z,56.53
2022-10-17T03:07:49.947Z,56.56
2022-10-17T03:10:18.362Z,56.74
2022-10-17T03:12:45.682Z,56.91
2022-10-17T03:15:14.126Z,57.12
2022-10-17T03:17:41.656Z,57.42
2022-10-17T03:20:09.814Z,57.84
2022-10-17T03:22:38.509Z,57.85
2022-10-17T03:25:06.376Z,58.25
2022-10-17T03:27:33.594Z,58.81
2022-10-17T03:30:00.804Z,59.39
2022-10-17T03:32:28.090Z,59.61
2022-10-17T03:34:55.298Z,59.76
2022-10-17T03:37:22.569Z,59.72
2022-10-17T03:39:51.395Z,60.08
2022-10-17T03:42:18.627Z,60.31
2022-10-17T03:44:45.983Z,60.38
2022-10-17T03:47:14.274Z,60.33
2022-10-17T03:49:41.786Z,60.57
2022-10-17T03:52:12.541Z,60.67
2022-10-17T03:54:39.815Z,60.87
2022-10-17T03:57:08.493Z,60.93
2022-10-17T03:59:35.749Z,61.20
2022-10-17T04:02:03.017Z,61.38
2022-10-17T04:04:30.218Z,61.34
2022-10-17T04:06:57.474Z,61.48
2022-10-17T04:09:24.714Z,61.43
2022-10-17T04:11:51.972Z,61.54
2022-10-17T04:14:20.672Z,61.38
2022-10-17T04:16:47.982Z,61.40
2022-10-17T04:19:15.301Z,61.52
2022-10-17T04:21:42.571Z,61.74
2022-10-17T04:24:12.324Z,61.52
2022-10-17T04:26:39.536Z,61.68
2022-10-17T04:29:06.809Z,61.85
2022-10-17T04:31:35.878Z,62.41
2022-10-17T04:34:03.162Z,62.30
2022-10-17T04:36:30.381Z,62.28
2022-10-17T04:38:57.575Z,62.49
2022-10-17T04:41:25.851Z,62.58
2022-10-17T04:43:53.076Z,62.49
2022-10-17T04:46:20.439Z,62.73
2022-10-17T04:48:49.194Z,62.68
2022-10-17T04:51:20.704Z,62.72
2022-10-17T04:53:50.548Z,62.68
2022-10-17T04:56:20.669Z,62.76
2022-10-17T04:58:48.601Z,62.75
2022-10-17T05:01:18.899Z,62.59
2022-10-17T05:03:48.297Z,62.70
2022-10-17T05:06:21.662Z,62.52
2022-10-17T05:08:49.739Z,62.83
2022-10-17T05:11:19.965Z,63.12
2022-10-17T05:13:51.734Z,62.81
2022-10-17T05:16:19.477Z,62.91
2022-10-17T05:18:52.925Z,62.62
2022-10-17T05:21:22.750Z,62.92
2022-10-17T05:23:50.537Z,62.78
2022-10-17T05:26:18.716Z,62.80
2022-10-17T05:28:46.119Z,62.93
2022-10-17T05:31:13.862Z,63.13
2022-10-17T05:33:43.071Z,62.92
2022-10-17T05:36:11.851Z,63.25
2022-10-17T05:38:39.139Z,63.18
2022-10-17T05:41:06.472Z,63.45
2022-10-17T05:43:34.679Z,63.18
2022-10-17T05:46:05.516Z,63.50
2022-10-17T05:48:33.944Z,63.64
2022-10-17T05:51:04.309Z,63.68
2022-10-17T05:53:35.593Z,63.83
2022-10-17T05:56:06.953Z,63.87
2022-10-17T05:58:53.180Z,63.89
2022-10-17T06:01:21.503Z,63.88
2022-10-17T06:03:48.925Z,64.08
2022-10-17T06:06:17.765Z,63.98
2022-10-17T06:08:46.576Z,64.09
2022-10-17T06:11:14.290Z,64.00
2022-10-17T06:13:42.322Z,63.96
2022-10-17T06:16:09.924Z,64.00
2022-10-17T06:18:37.234Z,63.97
2022-10-17T06:21:07.631Z,63.90
2022-10-17T06:23:34.933Z,64.06
2022-10-17T06:26:06.229Z,63.93
2022-10-17T06:28:34.303Z,63.95
2022-10-17T06:31:06.262Z,63.60
2022-10-17T06:33:33.726Z,63.92
2022-10-17T06:36:01.116Z,64.17
2022-10-17T06:38:28.474Z,64.05
2022-10-17T06:41:04.980Z,63.96
2022-10-17T06:43:32.222Z,64.14
2022-10-17T06:45:59.474Z,63.99
2022-10-17T06:48:26.708Z,63.98
2022-10-17T06:53:45.268Z,63.81
2022-10-17T06:56:14.319Z,63.56
2022-10-17T06:58:42.042Z,63.64
2022-10-17T07:01:12.277Z,63.10
2022-10-17T07:03:41.102Z,63.16
2022-10-17T07:06:10.767Z,62.78
2022-10-17T07:08:38.378Z,62.54
2022-10-17T07:11:16.227Z,62.54
2022-10-17T07:13:44.020Z,62.39
2022-10-17T07:16:12.742Z,62.65
2022-10-17T07:18:40.901Z,61.88
2022-10-17T07:21:09.945Z,61.72
2022-10-17T07:23:38.548Z,61.71
2022-10-17T07:26:10.848Z,61.73
2022-10-17T07:28:42.803Z,61.56
2022-10-17T07:31:14.831Z,61.05
2022-10-17T07:33:42.282Z,61.11
2022-10-17T07:36:10.193Z,60.83
2022-10-17T07:38:37.948Z,60.56
2022-10-17T07:41:08.396Z,60.66
2022-10-17T07:43:39.064Z,60.38
2022-10-17T07:46:08.460Z,60.32
2022-10-17T07:48:35.902Z,60.84
2022-10-17T07:51:04.408Z,60.55
2022-10-17T07:53:32.370Z,60.44
2022-10-17T07:55:59.664Z,59.89
2022-10-17T07:58:28.757Z,60.31
2022-10-17T08:01:00.230Z,59.94
2022-10-17T08:03:28.997Z,59.89
2022-10-17T08:05:58.865Z,59.54
2022-10-17T08:08:26.619Z,60.25
2022-10-17T08:10:55.031Z,60.11
2022-10-17T08:13:22.964Z,59.43
2022-10-17T08:15:50.212Z,59.66
2022-10-17T08:18:18.339Z,59.71
2022-10-17T08:20:48.786Z,59.11
2022-10-17T08:23:16.041Z,59.39
2022-10-17T08:25:43.288Z,58.94
2022-10-17T08:28:10.485Z,59.05
2022-10-17T08:30:37.863Z,58.57
2022-10-17T08:33:05.111Z,58.54
2022-10-17T08:35:32.620Z,58.03
2022-10-17T08:38:01.860Z,58.07
2022-10-17T08:40:33.798Z,58.20
2022-10-17T08:43:35.265Z,57.54
2022-10-17T08:46:08.021Z,57.41
2022-10-17T08:48:46.324Z,56.47
2022-10-17T08:51:19.563Z,56.20
2022-10-17T08:53:54.405Z,55.97
2022-10-17T08:56:44.057Z,55.68
2022-10-17T08:59:14.774Z,55.44
2022-10-17T09:01:50.353Z,55.63
2022-10-17T09:04:45.668Z,55.63
2022-10-17T09:07:22.440Z,55.61
2022-10-17T09:10:03.423Z,55.78
2022-10-17T09:12:43.867Z,55.41
2022-10-17T09:15:47.621Z,55.24
2022-10-17T09:18:23.718Z,54.72
2022-10-17T09:20:57.963Z,55.10
2022-10-17T09:23:31.265Z,55.20
2022-10-17T09:26:02.206Z,54.86
2022-10-17T09:28:34.888Z,54.96
2022-10-17T09:31:06.909Z,54.97
2022-10-17T09:33:53.729Z,54.16
2022-10-17T09:36:26.112Z,53.95
2022-10-17T09:38:56.462Z,53.26
2022-10-17T09:44:25.422Z,53.26
2022-10-17T09:47:08.622Z,52.83
2022-10-17T09:49:39.609Z,52.37
2022-10-17T09:52:18.224Z,52.29
2022-10-17T09:54:50.134Z,52.40
2022-10-17T09:57:21.706Z,51.88
2022-10-17T09:59:59.268Z,51.82
2022-10-17T10:02:29.577Z,51.60
2022-10-17T10:05:05.667Z,52.03
2022-10-17T10:07:37.716Z,51.85
2022-10-17T10:10:14.249Z,51.13
2022-10-17T10:13:03.260Z,51.31
2022-10-17T10:15:35.301Z,52.03
2022-10-17T10:18:03.806Z,52.18
2022-10-17T10:20:36.757Z,51.76
2022-10-17T10:23:17.728Z,52.49
2022-10-17T10:25:56.361Z,52.68
2022-10-17T10:28:29.691Z,52.11
2022-10-17T10:31:00.667Z,52.70
2022-10-17T10:33:30.764Z,52.57
2022-10-17T10:36:06.343Z,52.14
2022-10-17T10:38:35.281Z,52.41
2022-10-17T10:41:05.461Z,51.86
2022-10-17T10:43:40.627Z,51.93
2022-10-17T10:46:19.358Z,51.53
2022-10-17T10:48:58.586Z,51.61
2022-10-17T10:51:32.507Z,51.44
2022-10-17T10:54:06.594Z,51.81
2022-10-17T10:56:40.588Z,51.85
2022-10-17T10:59:19.297Z,52.00
2022-10-17T11:01:54.742Z,52.08
2022-10-17T11:04:32.539Z,51.97
2022-10-17T11:07:06.846Z,51.78
2022-10-17T11:09:49.373Z,52.37
2022-10-17T11:12:24.257Z,51.99
2022-10-17T11:15:17.067Z,52.01
2022-10-17T11:17:57.345Z,53.13
2022-10-17T11:20:34.875Z,53.54
2022-10-17T11:23:19.857Z,53.66
2022-10-17T11:25:51.041Z,55.16
2022-10-17T11:28:21.714Z,55.66
2022-10-17T11:30:58.041Z,56.06
2022-10-17T11:33:32.437Z,57.04
2022-10-17T11:36:06.101Z,56.94
2022-10-17T11:38:45.385Z,56.80
2022-10-17T11:41:27.345Z,57.73
2022-10-17T11:44:01.419Z,57.39
2022-10-17T11:46:35.924Z,57.64
2022-10-17T11:49:17.422Z,57.64
2022-10-17T11:52:01.601Z,58.15
2022-10-17T11:54:38.018Z,57.75
2022-10-17T11:57:32.758Z,58.38
2022-10-17T12:00:32.507Z,58.67
2022-10-17T12:03:26.589Z,58.61
2022-10-17T12:06:12.317Z,58.06
2022-10-17T12:08:49.749Z,57.89
2022-10-17T12:11:36.878Z,58.23
2022-10-17T12:14:35.814Z,58.43
2022-10-17T12:17:05.742Z,58.99
2022-10-17T12:19:37.463Z,59.09
2022-10-17T12:22:23.171Z,60.14
2022-10-17T12:24:59.046Z,62.54
2022-10-17T12:27:45.834Z,63.25
2022-10-17T12:30:24.521Z,64.32
2022-10-17T12:33:22.278Z,64.86
2022-10-17T12:36:13.456Z,64.82
2022-10-17T12:38:41.179Z,64.83
2022-10-17T12:41:08.459Z,64.80
2022-10-17T12:43:47.244Z,65.51
2022-10-17T12:46:50.956Z,65.70
2022-10-17T12:49:43.834Z,65.83
2022-10-17T12:52:58.610Z,65.41
2022-10-17T12:55:26.815Z,65.26
2022-10-17T12:58:00.156Z,65.16
2022-10-17T13:00:43.826Z,65.09
2022-10-17T13:03:22.131Z,64.79
2022-10-17T13:05:52.535Z,64.55
2022-10-17T13:08:26.377Z,64.65
2022-10-17T13:10:55.824Z,64.53
2022-10-17T13:13:35.273Z,64.33
2022-10-17T13:16:02.657Z,64.58
2022-10-17T13:18:30.689Z,64.76
2022-10-17T13:21:02.245Z,64.80
2022-10-17T13:23:34.957Z,64.92
2022-10-17T13:26:14.484Z,64.84
2022-10-17T13:28:42.614Z,64.64
2022-10-17T13:31:30.067Z,65.07
2022-10-17T13:34:01.969Z,65.15
2022-10-17T13:36:35.906Z,64.94
2022-10-17T13:39:16.854Z,64.94
2022-10-17T13:41:50.239Z,65.20
2022-10-17T13:44:24.460Z,65.07
2022-10-17T13:46:52.198Z,65.18
2022-10-17T13:49:25.941Z,65.13
2022-10-17T13:51:56.708Z,65.07
2022-10-17T13:54:36.230Z,65.21
2022-10-17T13:57:06.280Z,65.33
2022-10-17T13:59:39.950Z,65.40
2022-10-17T14:02:14.575Z,65.21
2022-10-17T14:05:11.781Z,65.11
2022-10-17T14:08:05.713Z,65.00
2022-10-17T14:10:33.883Z,64.75
2022-10-17T14:13:04.348Z,64.67
2022-10-17T14:15:35.293Z,64.32
2022-10-17T14:18:07.955Z,64.30
2022-10-17T14:23:36.604Z,64.02
2022-10-17T14:26:13.514Z,64.09
2022-10-17T14:28:43.357Z,63.92
2022-10-17T14:31:25.796Z,63.98
2022-10-17T14:33:54.705Z,63.98
2022-10-17T14:36:34.204Z,63.79
2022-10-17T14:39:03.475Z,63.51
2022-10-17T14:41:44.190Z,63.56
2022-10-17T14:44:21.678Z,63.61
2022-10-17T14:46:54.978Z,63.29
2022-10-17T14:49:34.697Z,63.57
2022-10-17T14:52:30.717Z,63.41
2022-10-17T14:55:00.403Z,63.29
2022-10-17T14:57:44.677Z,63.17
2022-10-17T15:00:15.967Z,63.11
2022-10-17T15:02:44.759Z,62.72
2022-10-17T15:05:13.414Z,63.13
2022-10-17T15:07:41.449Z,63.39
2022-10-17T15:10:33.760Z,63.01
2022-10-17T15:13:16.399Z,63.17
2022-10-17T15:15:52.413Z,63.21
2022-10-17T15:18:19.884Z,63.14
2022-10-17T15:20:49.570Z,63.16
2022-10-17T15:23:22.622Z,63.12
2022-10-17T15:25:50.019Z,63.30
2022-10-17T15:28:19.087Z,63.04
2022-10-17T15:30:46.688Z,63.17
2022-10-17T15:33:14.135Z,63.15
2022-10-17T15:35:42.657Z,62.75
2022-10-17T15:38:18.019Z,63.28
2022-10-17T15:40:48.839Z,62.99
2022-10-17T15:43:19.750Z,63.24
2022-10-17T15:45:48.885Z,63.18
2022-10-17T15:48:26.597Z,63.06
2022-10-17T15:50:53.972Z,63.14
2022-10-17T15:53:21.230Z,63.16
2022-10-17T15:55:50.952Z,63.14
2022-10-17T15:58:19.774Z,63.14
2022-10-17T16:00:48.986Z,63.30
2022-10-17T16:03:16.472Z,63.27
2022-10-17T16:05:43.855Z,63.17
2022-10-17T16:08:11.259Z,63.42
2022-10-17T16:10:41.074Z,63.15
2022-10-17T16:13:17.340Z,63.52
2022-10-17T16:15:44.716Z,63.15
2022-10-17T16:18:14.023Z,63.29
2022-10-17T16:20:41.643Z,63.28
2022-10-17T16:23:12.475Z,63.17
2022-10-17T16:25:40.794Z,63.34
2022-10-17T16:28:08.506Z,63.24
2022-10-17T16:30:42.867Z,63.30
2022-10-17T16:33:11.613Z,63.35
2022-10-17T16:35:40.510Z,63.29
2022-10-17T16:38:08.394Z,63.41
2022-10-17T16:40:40.272Z,63.33
2022-10-17T16:43:10.224Z,63.78
2022-10-17T16:45:37.647Z,63.54
2022-10-17T16:48:05.862Z,63.61
2022-10-17T16:50:35.580Z,63.97
2022-10-17T16:53:04.277Z,64.13
2022-10-17T16:55:31.562Z,64.01
2022-10-17T16:58:03.126Z,63.69
2022-10-17T17:00:31.572Z,63.72
2022-10-17T17:02:59.074Z,63.72
2022-10-17T17:05:26.604Z,63.61
2022-10-17T17:07:55.714Z,63.74
2022-10-17T17:10:24.680Z,63.71
2022-10-17T17:12:52.171Z,64.02
2022-10-17T17:15:19.757Z,63.99
2022-10-17T17:17:53.527Z,63.99
2022-10-17T17:20:22.801Z,63.78
2022-10-17T17:22:51.924Z,63.87
2022-10-17T17:25:19.381Z,63.81
2022-10-17T17:27:48.364Z,63.65
2022-10-17T17:30:16.268Z,63.67
2022-10-17T17:32:43.744Z,63.61
2022-10-17T17:35:11.348Z,63.72
2022-10-17T17:37:38.847Z,63.43
2022-10-17T17:40:08.014Z,63.40
2022-10-17T17:42:35.530Z,63.43
2022-10-17T17:45:05.843Z,63.24
2022-10-17T17:47:33.480Z,63.06
2022-10-17T17:50:02.450Z,62.87
2022-10-17T17:52:30.274Z,62.79
2022-10-17T17:54:57.992Z,62.72
2022-10-17T17:57:25.542Z,62.67
2022-10-17T17:59:53.224Z,62.43
2022-10-17T18:02:22.529Z,62.33
2022-10-17T18:04:50.040Z,62.00
2022-10-17T18:07:17.324Z,61.93
2022-10-17T18:09:44.567Z,61.86
2022-10-17T18:12:12.014Z,61.58
2022-10-17T18:14:39.349Z,61.32
2022-10-17T18:17:06.687Z,61.19
2022-10-17T18:19:35.746Z,61.21
2022-10-17T18:22:03.035Z,61.10
2022-10-17T18:24:30.269Z,60.99
2022-10-17T18:26:59.839Z,60.85
2022-10-17T18:29:27.517Z,60.99
2022-10-17T18:31:54.987Z,60.91
2022-10-17T18:34:22.301Z,61.02
2022-10-17T18:36:52.822Z,60.98
2022-10-17T18:39:20.534Z,60.84
2022-10-17T18:41:47.834Z,60.83
2022-10-17T18:44:15.979Z,61.21
2022-10-17T18:46:43.328Z,61.05
2022-10-17T18:49:13.218Z,60.91
2022-10-17T18:51:41.788Z,61.23
2022-10-17T18:54:14.877Z,61.20
2022-10-17T18:56:42.202Z,61.32
2022-10-17T18:59:09.809Z,61.22
2022-10-17T19:04:28.832Z,61.22
2022-10-17T19:06:56.134Z,61.42
2022-10-17T19:09:25.168Z,61.47
2022-10-17T19:11:52.607Z,61.85
2022-10-17T19:14:19.932Z,61.29
2022-10-17T19:16:51.621Z,61.52
2022-10-17T19:19:22.232Z,61.58
2022-10-17T19:21:50.597Z,61.83
2022-10-17T19:24:20.897Z,61.88
2022-10-17T19:26:55.822Z,61.73
2022-10-17T19:29:27.986Z,61.96
2022-10-17T19:34:23.822Z,62.21
2022-10-17T19:36:51.174Z,61.74
2022-10-17T19:39:22.726Z,62.05
2022-10-17T19:41:52.003Z,62.23
2022-10-17T19:44:19.614Z,62.17
2022-10-17T19:46:49.060Z,61.83
2022-10-17T19:49:17.070Z,62.22
2022-10-17T19:51:44.667Z,61.59
2022-10-17T19:54:12.785Z,61.44
2022-10-17T19:56:41.300Z,61.76
2022-10-17T19:59:13.248Z,61.85
2022-10-17T20:01:41.741Z,61.82
2022-10-17T20:04:11.006Z,61.31
2022-10-17T20:06:39.573Z,61.36
2022-10-17T20:09:09.912Z,61.17
2022-10-17T20:11:39.881Z,61.42
2022-10-17T20:14:07.255Z,61.33
2022-10-17T20:16:36.779Z,61.01
2022-10-17T20:19:08.597Z,61.16
2022-10-17T20:21:39.442Z,61.11
2022-10-17T20:24:11.310Z,61.14
2022-10-17T20:26:39.589Z,60.71
2022-10-17T20:29:11.631Z,61.19
2022-10-17T20:31:43.041Z,61.04
2022-10-17T20:34:14.065Z,60.90
2022-10-17T20:36:41.969Z,61.13
2022-10-17T20:39:12.192Z,60.88
2022-10-17T20:41:40.027Z,60.76
2022-10-17T20:44:07.913Z,61.07
2022-10-17T20:46:37.672Z,61.20
2022-10-17T20:49:13.533Z,60.73
2022-10-17T20:51:41.340Z,60.59
2022-10-17T20:54:08.947Z,61.13
2022-10-17T20:56:36.407Z,61.10
2022-10-17T20:59:07.189Z,60.93
2022-10-17T21:01:36.100Z,61.01
2022-10-17T21:04:33.360Z,60.59
2022-10-17T21:06:53.528Z,60.93
2022-10-17T21:09:21.836Z,60.71
2022-10-17T21:11:52.467Z,60.93
2022-10-17T21:14:19.977Z,61.23
2022-10-17T21:16:48.386Z,61.11
2022-10-17T21:19:16.656Z,60.76
2022-10-17T21:21:46.724Z,60.86
2022-10-17T21:24:18.116Z,60.71
2022-10-17T21:26:47.745Z,61.08
2022-10-17T21:29:15.097Z,61.24
2022-10-17T21:31:44.807Z,61.11
2022-10-17T21:34:14.982Z,61.36
2022-10-17T21:36:42.886Z,61.20
2022-10-17T21:41:41.078Z,61.37
2022-10-17T21:44:14.328Z,61.77
2022-10-17T21:46:42.687Z,61.58
2022-10-17T21:49:12.882Z,61.36
2022-10-17T21:51:41.009Z,62.21
2022-10-17T21:54:08.865Z,61.71
2022-10-17T21:56:36.581Z,62.22
2022-10-17T21:59:05.916Z,61.95
2022-10-17T22:01:35.706Z,61.70
2022-10-17T22:04:05.985Z,62.13
2022-10-17T22:06:40.178Z,62.18
2022-10-17T22:09:13.239Z,61.91
2022-10-17T22:11:41.472Z,62.17
2022-10-17T22:14:15.165Z,62.53
2022-10-17T22:16:44.239Z,62.36
2022-10-17T22:19:14.326Z,61.92
2022-10-17T22:21:41.599Z,62.02
2022-10-17T22:24:12.920Z,62.35
2022-10-17T22:26:40.966Z,62.03
2022-10-17T22:29:09.954Z,62.81
2022-10-17T22:31:38.400Z,62.62
2022-10-17T22:34:07.156Z,62.45
2022-10-17T22:36:35.891Z,62.54
2022-10-17T22:39:04.339Z,62.72
2022-10-17T22:41:32.239Z,62.61
2022-10-17T22:44:00.142Z,63.17
2022-10-17T22:46:29.117Z,62.70
2022-10-17T22:48:56.447Z,63.04
2022-10-17T22:53:56.006Z,62.83
2022-10-17T22:56:23.618Z,63.04
2022-10-17T22:58:51.563Z,63.04
2022-10-17T23:01:22.526Z,63.25
2022-10-17T23:03:52.665Z,63.19
2022-10-17T23:06:21.280Z,62.88
2022-10-17T23:08:49.292Z,63.08
2022-10-17T23:11:17.085Z,63.13
2022-10-17T23:13:44.363Z,62.97
2022-10-17T23:16:11.727Z,62.93
2022-10-17T23:18:39.448Z,62.97
2022-10-17T23:21:08.785Z,63.31
2022-10-17T23:23:36.171Z,62.93
2022-10-17T23:26:05.658Z,62.92
2022-10-17T23:28:35.498Z,62.88
2022-10-17T23:31:11.256Z,62.98
2022-10-17T23:33:41.200Z,63.39
2022-10-17T23:36:11.927Z,63.67
2022-10-17T23:38:39.811Z,63.14
2022-10-17T23:41:07.815Z,63.05
2022-10-17T23:43:35.292Z,63.07
2022-10-17T23:46:03.854Z,63.66
2022-10-17T23:48:31.310Z,63.10
2022-10-17T23:50:58.736Z,63.12
2022-10-17T23:53:27.420Z,63.27
2022-10-17T23:55:54.654Z,63.45
2022-10-17T23:58:21.964Z,63.44
